Time;durP1;ratioP1;P1;durP2;ratioP2;P2;SDS_P1;SDS_P2;PMS_P1;PMS_P2;Temp;Humidity;BMP_temperature;BMP_pressure;BME280_temperature;BME280_humidity;BME280_pressure;Samples;Min_cycle;Max_cycle;Signal;HPM_P1;HPM_P2
2021/10/27 00:01:17;;;;;;;;;12.00;8.00;;;;;;;;5104967;27;111939;-77
2021/10/27 00:03:42;;;;;;;;;12.00;9.00;;;;;;;;5103451;27;112432;-78
2021/10/27 00:06:08;;;;;;;;;8.75;8.25;;;;;;;;5108272;27;111810;-76
2021/10/27 00:08:33;;;;;;;;;6.00;6.00;;;;;;;;5103292;27;112384;-77
2021/10/27 00:10:58;;;;;;;;;9.25;9.00;;;;;;;;5104108;27;112106;-76
2021/10/27 00:13:24;;;;;;;;;14.00;10.50;;;;;;;;5096324;27;111839;-77
2021/10/27 00:15:49;;;;;;;;;12.75;9.00;;;;;;;;5103151;27;112833;-78
2021/10/27 00:18:14;;;;;;;;;12.00;9.00;;;;;;;;5104897;27;112112;-79
2021/10/27 00:20:40;;;;;;;;;13.00;10.00;;;;;;;;5104517;27;112655;-76
2021/10/27 00:23:05;;;;;;;;;9.50;8.25;;;;;;;;5102272;27;113539;-78
2021/10/27 00:25:30;;;;;;;;;9.00;8.00;;;;;;;;5104448;27;111987;-77
2021/10/27 00:27:56;;;;;;;;;12.00;10.00;;;;;;;;5107316;27;111657;-77
2021/10/27 00:30:21;;;;;;;;;11.50;9.75;;;;;;;;5103405;27;111623;-78
2021/10/27 00:32:47;;;;;;;;;8.75;8.75;;;;;;;;5104020;27;112047;-77
2021/10/27 00:35:12;;;;;;;;;8.75;8.75;;;;;;;;5102678;27;112325;-77
2021/10/27 00:37:38;;;;;;;;;11.00;8.75;;;;;;;;5103845;27;111900;-78
2021/10/27 00:40:03;;;;;;;;;10.50;8.00;;;;;;;;5105053;27;111848;-77
2021/10/27 00:42:29;;;;;;;;;12.25;10.50;;;;;;;;5103293;27;112361;-77
2021/10/27 00:44:54;;;;;;;;;7.50;6.00;;;;;;;;5084470;27;112315;-77
2021/10/27 00:47:20;;;;;;;;;9.25;8.25;;;;;;;;5085282;27;114935;-77
2021/10/27 00:49:46;;;;;;;;;13.75;10.00;;;;;;;;5106586;27;112321;-76
2021/10/27 00:52:13;;;;;;;;;9.75;9.75;;;;;;;;5102958;27;112030;-77
2021/10/27 00:54:39;;;;;;;;;13.25;10.50;;;;;;;;5103299;27;113653;-78
2021/10/27 00:57:04;;;;;;;;;11.00;11.00;;;;;;;;5103069;27;112547;-78
2021/10/27 00:59:30;;;;;;;;;8.75;8.00;;;;;;;;5084384;27;114539;-78
2021/10/27 01:01:56;;;;;;;;;9.00;8.50;;;;;;;;5102894;27;112320;-77
2021/10/27 01:04:22;;;;;;;;;13.00;11.00;;;;;;;;5103408;27;111855;-78
2021/10/27 01:06:48;;;;;;;;;7.50;7.50;;;;;;;;5103292;27;112878;-78
2021/10/27 01:09:13;;;;;;;;;12.75;8.25;;;;;;;;5103049;27;112299;-78
2021/10/27 01:11:40;;;;;;;;;8.50;6.50;;;;;;;;5107726;27;112318;-77
2021/10/27 01:14:06;;;;;;;;;8.75;8.75;;;;;;;;5083154;27;113726;-77
2021/10/27 01:16:31;;;;;;;;;9.75;6.00;;;;;;;;5103429;27;111971;-77
2021/10/27 01:18:56;;;;;;;;;13.50;9.75;;;;;;;;5102796;27;111627;-77
2021/10/27 01:21:26;;;;;;;;;12.75;9.00;;;;;;;;5102206;27;112339;-77
2021/10/27 01:23:51;;;;;;;;;10.00;9.00;;;;;;;;5102891;27;112430;-76
2021/10/27 01:26:17;;;;;;;;;12.75;9.00;;;;;;;;5103412;27;111817;-77
2021/10/27 01:28:43;;;;;;;;;13.00;11.50;;;;;;;;5102167;27;112203;-77
2021/10/27 01:31:09;;;;;;;;;5.00;5.00;;;;;;;;5106789;27;112097;-77
2021/10/27 01:33:35;;;;;;;;;13.75;13.00;;;;;;;;5102141;27;112613;-77
2021/10/27 01:36:00;;;;;;;;;13.75;12.00;;;;;;;;5102542;27;112067;-77
2021/10/27 01:38:25;;;;;;;;;15.75;13.00;;;;;;;;5102095;27;112165;-79
2021/10/27 01:40:51;;;;;;;;;10.50;10.00;;;;;;;;5082578;27;113756;-77
2021/10/27 01:43:16;;;;;;;;;12.50;11.25;;;;;;;;5102401;27;111614;-76
2021/10/27 01:45:41;;;;;;;;;12.25;10.50;;;;;;;;5101838;27;112346;-77
2021/10/27 01:48:08;;;;;;;;;14.00;14.00;;;;;;;;5102053;27;112604;-77
2021/10/27 01:50:34;;;;;;;;;13.75;10.50;;;;;;;;5102304;27;111759;-77
2021/10/27 01:52:59;;;;;;;;;10.50;10.50;;;;;;;;5104929;27;113191;-77
2021/10/27 01:55:25;;;;;;;;;10.50;10.00;;;;;;;;5102651;27;111900;-78
2021/10/27 01:57:50;;;;;;;;;13.00;12.25;;;;;;;;5083259;27;115120;-78
2021/10/27 02:00:15;;;;;;;;;12.00;11.25;;;;;;;;5101206;27;112389;-78
2021/10/27 02:02:41;;;;;;;;;10.00;10.00;;;;;;;;5105368;27;112287;-78
2021/10/27 02:05:06;;;;;;;;;13.75;9.75;;;;;;;;5106297;27;111747;-77
2021/10/27 02:07:32;;;;;;;;;14.00;12.25;;;;;;;;5105590;27;112649;-78
2021/10/27 02:09:57;;;;;;;;;13.00;12.75;;;;;;;;5106197;27;111839;-78
2021/10/27 02:12:23;;;;;;;;;16.50;12.75;;;;;;;;5105563;27;113278;-77
2021/10/27 02:14:48;;;;;;;;;12.25;10.00;;;;;;;;5108369;27;112373;-78
2021/10/27 02:17:14;;;;;;;;;14.25;10.00;;;;;;;;5105905;27;111797;-78
2021/10/27 02:19:39;;;;;;;;;15.25;10.00;;;;;;;;5104248;27;113473;-78
2021/10/27 02:22:05;;;;;;;;;17.00;12.50;;;;;;;;5086617;27;112036;-78
2021/10/27 02:24:30;;;;;;;;;8.00;8.00;;;;;;;;5105290;27;111834;-78
2021/10/27 02:26:55;;;;;;;;;13.00;9.25;;;;;;;;5104554;27;112941;-78
2021/10/27 02:29:21;;;;;;;;;11.00;8.50;;;;;;;;5106553;27;111865;-78
2021/10/27 02:31:46;;;;;;;;;10.00;9.00;;;;;;;;5087708;27;113277;-78
2021/10/27 02:34:11;;;;;;;;;10.00;9.50;;;;;;;;5105292;27;112567;-78
2021/10/27 02:36:37;;;;;;;;;10.00;8.75;;;;;;;;5109985;27;112011;-78
2021/10/27 02:39:02;;;;;;;;;9.25;9.00;;;;;;;;5104551;27;113643;-78
2021/10/27 02:41:27;;;;;;;;;10.00;8.50;;;;;;;;5105570;27;111902;-78
2021/10/27 02:43:52;;;;;;;;;14.75;10.00;;;;;;;;5105679;27;112187;-78
2021/10/27 02:46:18;;;;;;;;;14.75;8.75;;;;;;;;5104224;27;112256;-77
2021/10/27 02:48:44;;;;;;;;;13.25;9.25;;;;;;;;5104944;27;111945;-78
2021/10/27 02:51:10;;;;;;;;;10.00;9.00;;;;;;;;5104905;27;113221;-77
2021/10/27 02:53:35;;;;;;;;;8.75;8.75;;;;;;;;5104011;27;113481;-78
2021/10/27 02:56:00;;;;;;;;;9.50;9.25;;;;;;;;5105956;27;111902;-77
2021/10/27 02:58:26;;;;;;;;;9.00;8.25;;;;;;;;5108991;27;111792;-77
2021/10/27 03:00:51;;;;;;;;;8.75;7.00;;;;;;;;5105695;27;111740;-77
2021/10/27 03:03:17;;;;;;;;;13.00;9.00;;;;;;;;5105666;27;113384;-78
2021/10/27 03:05:42;;;;;;;;;6.00;5.50;;;;;;;;5104477;27;112338;-78
2021/10/27 03:08:07;;;;;;;;;8.75;7.50;;;;;;;;5105237;27;112312;-78
2021/10/27 03:10:33;;;;;;;;;6.50;5.25;;;;;;;;5105279;27;111832;-78
2021/10/27 03:12:58;;;;;;;;;9.00;6.00;;;;;;;;5103964;27;112909;-77
2021/10/27 03:15:23;;;;;;;;;1.00;1.00;;;;;;;;5104735;27;111861;-77
2021/10/27 03:17:49;;;;;;;;;5.75;5.75;;;;;;;;5104972;27;111937;-77
2021/10/27 03:20:15;;;;;;;;;10.00;8.50;;;;;;;;5102506;27;112695;-77
2021/10/27 03:22:40;;;;;;;;;9.25;5.75;;;;;;;;5105894;27;111745;-76
2021/10/27 03:25:06;;;;;;;;;6.25;5.75;;;;;;;;5085262;27;114142;-77
2021/10/27 03:27:31;;;;;;;;;9.00;5.75;;;;;;;;5104968;27;112033;-77
2021/10/27 03:29:56;;;;;;;;;4.50;4.50;;;;;;;;5104606;27;112103;-77
2021/10/27 03:32:22;;;;;;;;;7.00;7.00;;;;;;;;5103454;27;113502;-77
2021/10/27 03:34:48;;;;;;;;;8.75;6.00;;;;;;;;5104668;27;111618;-77
2021/10/27 03:37:14;;;;;;;;;6.00;4.00;;;;;;;;5104476;27;111836;-77
2021/10/27 03:39:40;;;;;;;;;8.25;5.75;;;;;;;;5089156;27;115633;-77
2021/10/27 03:42:05;;;;;;;;;8.00;5.50;;;;;;;;5105122;27;111922;-77
2021/10/27 03:44:30;;;;;;;;;4.75;4.75;;;;;;;;5103291;27;112409;-77
2021/10/27 03:46:56;;;;;;;;;6.00;6.00;;;;;;;;5086397;27;111914;-77
2021/10/27 03:49:21;;;;;;;;;7.00;5.00;;;;;;;;5104771;27;111635;-77
2021/10/27 03:51:46;;;;;;;;;5.25;5.25;;;;;;;;5084418;27;116008;-76
2021/10/27 03:54:12;;;;;;;;;8.25;6.00;;;;;;;;5104452;27;111969;-79
2021/10/27 03:56:37;;;;;;;;;6.50;4.25;;;;;;;;5103981;27;112250;-76
2021/10/27 03:59:02;;;;;;;;;6.00;5.75;;;;;;;;5102861;27;112314;-76
2021/10/27 04:01:28;;;;;;;;;6.00;5.00;;;;;;;;5107815;27;111657;-77
2021/10/27 04:03:53;;;;;;;;;5.75;5.00;;;;;;;;5103133;27;113031;-78
2021/10/27 04:06:18;;;;;;;;;7.50;5.00;;;;;;;;5103935;27;112187;-76
2021/10/27 04:08:44;;;;;;;;;9.00;8.00;;;;;;;;5098351;27;112738;-76
2021/10/27 04:11:09;;;;;;;;;5.50;5.00;;;;;;;;5103908;27;112284;-77
2021/10/27 04:13:35;;;;;;;;;7.00;6.00;;;;;;;;5103847;27;111969;-77
2021/10/27 04:16:00;;;;;;;;;4.75;4.75;;;;;;;;5104576;27;111872;-77
2021/10/27 04:18:26;;;;;;;;;4.00;4.00;;;;;;;;5103047;27;112321;-78
2021/10/27 04:20:51;;;;;;;;;8.00;5.25;;;;;;;;5104243;27;111759;-77
2021/10/27 04:23:17;;;;;;;;;9.00;7.50;;;;;;;;5105601;27;112869;-78
2021/10/27 04:25:42;;;;;;;;;7.00;5.00;;;;;;;;5103697;27;112664;-78
2021/10/27 04:28:07;;;;;;;;;8.25;6.00;;;;;;;;5103613;27;112085;-77
2021/10/27 04:30:33;;;;;;;;;6.00;6.00;;;;;;;;5102251;27;113057;-77
2021/10/27 04:32:58;;;;;;;;;9.00;7.00;;;;;;;;5104194;27;112109;-75
2021/10/27 04:35:25;;;;;;;;;8.00;5.00;;;;;;;;5100181;27;111992;-75
2021/10/27 04:37:50;;;;;;;;;8.00;5.50;;;;;;;;5078869;27;114880;-76
2021/10/27 04:40:17;;;;;;;;;6.00;5.00;;;;;;;;5103453;27;112066;-76
2021/10/27 04:42:42;;;;;;;;;8.00;6.00;;;;;;;;5096817;27;112305;-77
2021/10/27 04:45:19;;;;;;;;;9.25;6.00;;;;;;;;5092360;27;113172;-77
2021/10/27 04:47:44;;;;;;;;;12.75;9.00;;;;;;;;5083244;27;114374;-76
2021/10/27 04:50:10;;;;;;;;;14.25;12.00;;;;;;;;5102677;27;112348;-78
2021/10/27 04:52:35;;;;;;;;;15.00;15.00;;;;;;;;5103088;27;111997;-77
2021/10/27 04:55:01;;;;;;;;;4.50;4.50;;;;;;;;5103078;27;112054;-75
2021/10/27 04:57:26;;;;;;;;;14.75;9.25;;;;;;;;5102507;27;112862;-76
2021/10/27 04:59:51;;;;;;;;;7.00;7.00;;;;;;;;5103253;27;111801;-79
2021/10/27 05:02:17;;;;;;;;;5.00;5.00;;;;;;;;5084069;27;112144;-77
2021/10/27 05:04:43;;;;;;;;;8.00;6.00;;;;;;;;5062710;27;115831;-75
2021/10/27 05:07:11;;;;;;;;;5.50;5.25;;;;;;;;5086517;27;111939;-78
2021/10/27 05:09:36;;;;;;;;;6.25;5.00;;;;;;;;5081383;27;113507;-78
2021/10/27 05:12:04;;;;;;;;;6.50;5.00;;;;;;;;5082301;27;111868;-78
2021/10/27 05:14:29;;;;;;;;;5.50;5.50;;;;;;;;5082138;27;112966;-78
2021/10/27 05:16:54;;;;;;;;;8.75;5.00;;;;;;;;5081816;27;112530;-78
2021/10/27 05:19:20;;;;;;;;;6.00;5.00;;;;;;;;5082603;27;112158;-78
2021/10/27 05:21:45;;;;;;;;;7.75;5.50;;;;;;;;5082154;27;113043;-78
2021/10/27 05:24:10;;;;;;;;;8.50;4.50;;;;;;;;5081430;27;113484;-78
2021/10/27 05:26:35;;;;;;;;;8.25;5.50;;;;;;;;5063328;27;111922;-78
2021/10/27 05:29:01;;;;;;;;;5.75;4.50;;;;;;;;5085030;27;111767;-78
2021/10/27 05:31:26;;;;;;;;;5.00;5.00;;;;;;;;5081585;27;111975;-77
2021/10/27 05:33:52;;;;;;;;;6.00;5.00;;;;;;;;5082100;27;111922;-78
2021/10/27 05:36:17;;;;;;;;;5.75;5.00;;;;;;;;5082746;27;112551;-78
2021/10/27 05:38:43;;;;;;;;;4.00;4.00;;;;;;;;5091114;27;111908;-78
2021/10/27 05:41:09;;;;;;;;;6.00;6.00;;;;;;;;5087516;27;112893;-79
2021/10/27 05:43:35;;;;;;;;;6.75;4.75;;;;;;;;5082065;27;113035;-76
2021/10/27 05:46:01;;;;;;;;;5.50;5.50;;;;;;;;5083694;27;111748;-80
2021/10/27 05:48:31;;;;;;;;;4.75;4.50;;;;;;;;5068721;27;112414;-80
2021/10/27 05:56:08;;;;;;;;;4.00;4.00;;;;;;;;5084303;27;112214;-79
2021/10/27 05:58:34;;;;;;;;;5.00;4.00;;;;;;;;5085695;27;112351;-80
2021/10/27 06:01:00;;;;;;;;;2.00;2.00;;;;;;;;5085766;27;112240;-81
2021/10/27 06:03:25;;;;;;;;;5.00;4.00;;;;;;;;5083646;27;113770;-80
2021/10/27 06:05:50;;;;;;;;;7.25;4.00;;;;;;;;5085085;27;111859;-78
2021/10/27 06:08:16;;;;;;;;;5.00;5.00;;;;;;;;5084855;27;111737;-79
2021/10/27 06:10:42;;;;;;;;;7.50;5.00;;;;;;;;5087375;27;112473;-79
2021/10/27 06:13:09;;;;;;;;;5.00;4.25;;;;;;;;5085532;27;113032;-79
2021/10/27 06:15:35;;;;;;;;;7.50;4.50;;;;;;;;5083527;27;112453;-79
2021/10/27 06:18:01;;;;;;;;;5.00;5.00;;;;;;;;5084294;27;111799;-79
2021/10/27 06:20:28;;;;;;;;;4.25;4.25;;;;;;;;5084717;27;111882;-79
2021/10/27 06:22:53;;;;;;;;;5.25;5.25;;;;;;;;5084363;27;113898;-78
2021/10/27 06:25:18;;;;;;;;;4.25;4.25;;;;;;;;5085204;27;111932;-79
2021/10/27 06:27:47;;;;;;;;;7.50;3.50;;;;;;;;5085234;27;112877;-79
2021/10/27 06:30:21;;;;;;;;;9.00;6.00;;;;;;;;5084023;27;113599;-80
2021/10/27 06:35:19;;;;;;;;;6.00;5.75;;;;;;;;5084135;27;112334;-84
2021/10/27 06:38:08;;;;;;;;;4.00;4.00;;;;;;;;5066433;27;111819;-81
2021/10/27 06:48:46;;;;;;;;;5.00;5.00;;;;;;;;5084366;27;111848;-80
2021/10/27 06:51:11;;;;;;;;;4.00;4.00;;;;;;;;5083559;27;112287;-81
2021/10/27 06:53:37;;;;;;;;;5.00;5.00;;;;;;;;5065930;27;111996;-81
2021/10/27 06:56:08;;;;;;;;;10.00;5.75;;;;;;;;5086951;27;112100;-82
2021/10/27 06:58:41;;;;;;;;;5.00;5.00;;;;;;;;5084037;27;111972;-81
2021/10/27 07:01:08;;;;;;;;;8.00;4.75;;;;;;;;5084551;27;112370;-82
2021/10/27 07:17:06;;;;;;;;;3.50;3.50;;;;;;;;5083639;27;112633;-82
2021/10/27 07:19:31;;;;;;;;;6.00;3.00;;;;;;;;5067810;27;113455;-78
2021/10/27 07:21:56;;;;;;;;;4.00;4.00;;;;;;;;5084278;27;111817;-79
2021/10/27 07:24:23;;;;;;;;;5.00;3.00;;;;;;;;5082912;27;112560;-76
2021/10/27 07:26:50;;;;;;;;;4.50;4.50;;;;;;;;5084163;27;111926;-83
2021/10/27 07:29:19;;;;;;;;;2.75;2.00;;;;;;;;5082861;27;112869;-78
2021/10/27 07:31:47;;;;;;;;;6.50;4.50;;;;;;;;5088614;27;112963;-78
2021/10/27 07:34:13;;;;;;;;;5.00;2.75;;;;;;;;5103995;27;111887;-78
2021/10/27 07:42:06;;;;;;;;;3.00;3.00;;;;;;;;5108854;27;111947;-81
2021/10/27 07:44:32;;;;;;;;;2.75;2.75;;;;;;;;5083849;27;115846;-74
2021/10/27 07:46:57;;;;;;;;;6.00;3.00;;;;;;;;5104135;27;112063;-75
2021/10/27 07:49:23;;;;;;;;;3.00;3.00;;;;;;;;5103808;27;112306;-75
2021/10/27 07:51:50;;;;;;;;;5.00;5.00;;;;;;;;5103025;27;112594;-74
2021/10/27 07:54:15;;;;;;;;;5.75;3.00;;;;;;;;5084750;27;111859;-78
2021/10/27 07:56:40;;;;;;;;;7.00;4.50;;;;;;;;5103386;27;113193;-79
2021/10/27 07:59:06;;;;;;;;;5.75;5.00;;;;;;;;5102074;27;112307;-79
2021/10/27 08:01:31;;;;;;;;;6.50;5.00;;;;;;;;5088292;27;111888;-78
2021/10/27 08:03:58;;;;;;;;;5.00;5.00;;;;;;;;5083967;27;115842;-78
2021/10/27 08:06:23;;;;;;;;;3.50;3.00;;;;;;;;5103889;27;112239;-79
2021/10/27 08:08:49;;;;;;;;;5.00;5.00;;;;;;;;5103948;27;111887;-78
2021/10/27 08:11:14;;;;;;;;;3.00;3.00;;;;;;;;5102302;27;113541;-78
2021/10/27 08:13:40;;;;;;;;;6.50;3.00;;;;;;;;5084154;27;112237;-82
2021/10/27 08:16:05;;;;;;;;;6.50;5.50;;;;;;;;5103004;27;112329;-78
2021/10/27 08:18:31;;;;;;;;;5.00;5.00;;;;;;;;5102385;27;112335;-72
2021/10/27 08:20:56;;;;;;;;;6.00;5.00;;;;;;;;5084434;27;111905;-76
2021/10/27 08:23:26;;;;;;;;;6.75;5.50;;;;;;;;5106135;27;112047;-76
2021/10/27 08:25:55;;;;;;;;;7.25;5.00;;;;;;;;5102433;27;112300;-75
2021/10/27 08:28:27;;;;;;;;;3.50;3.50;;;;;;;;5096778;27;113141;-74
2021/10/27 08:31:29;;;;;;;;;6.00;5.25;;;;;;;;5093553;27;113607;-76
2021/10/27 08:36:19;;;;;;;;;6.00;4.50;;;;;;;;5101942;27;111871;-74
2021/10/27 08:38:45;;;;;;;;;5.00;3.00;;;;;;;;5077335;27;113187;-76
2021/10/27 08:41:12;;;;;;;;;6.75;3.00;;;;;;;;5081212;27;111752;-79
2021/10/27 08:43:37;;;;;;;;;7.00;5.00;;;;;;;;5080420;27;113040;-76
2021/10/27 08:46:05;;;;;;;;;6.00;5.00;;;;;;;;5082786;27;112269;-76
2021/10/27 08:48:31;;;;;;;;;6.75;5.75;;;;;;;;5062576;27;114646;-83
2021/10/27 08:50:56;;;;;;;;;5.00;5.00;;;;;;;;5060955;27;115362;-80
2021/10/27 08:53:24;;;;;;;;;7.00;7.00;;;;;;;;5045518;27;112332;-82
2021/10/27 08:55:50;;;;;;;;;6.75;4.00;;;;;;;;5080671;27;113036;-78
2021/10/27 08:58:24;;;;;;;;;8.25;5.75;;;;;;;;5061246;27;115424;-80
2021/10/27 09:01:03;;;;;;;;;6.00;5.00;;;;;;;;5086835;27;111850;-83
2021/10/27 09:04:02;;;;;;;;;5.75;5.75;;;;;;;;5101414;27;112211;-84
2021/10/27 09:55:41;;;;;;;;;6.00;3.00;;;;;;;;5018194;28;112953;-77
2021/10/27 10:05:42;;;;;;;;;5.25;3.00;;;;;;;;5082008;27;111909;-86
2021/10/27 10:08:07;;;;;;;;;6.00;5.00;;;;;;;;5081573;27;112010;-83
2021/10/27 10:10:33;;;;;;;;;6.00;5.75;;;;;;;;5079970;27;112954;-80
2021/10/27 10:12:58;;;;;;;;;5.00;5.00;;;;;;;;5081275;27;111818;-86
2021/10/27 10:15:27;;;;;;;;;5.75;5.00;;;;;;;;5081669;27;112275;-82
2021/10/27 10:17:54;;;;;;;;;5.00;2.75;;;;;;;;5087975;27;112760;-84
2021/10/27 10:20:20;;;;;;;;;3.00;3.00;;;;;;;;5082398;27;112007;-82
2021/10/27 10:22:45;;;;;;;;;5.00;3.00;;;;;;;;5063812;27;115020;-89
2021/10/27 10:25:17;;;;;;;;;5.00;5.00;;;;;;;;5084417;27;111895;-78
2021/10/27 10:27:44;;;;;;;;;7.00;5.00;;;;;;;;5079239;27;113054;-73
2021/10/27 10:30:25;;;;;;;;;5.50;5.50;;;;;;;;5103346;27;112590;-78
2021/10/27 10:33:07;;;;;;;;;6.00;6.00;;;;;;;;5085857;27;112110;-79
2021/10/27 10:35:46;;;;;;;;;8.00;4.00;;;;;;;;5105602;27;112041;-79
2021/10/27 10:38:42;;;;;;;;;7.33;3.67;;;;;;;;5103459;27;113675;-79
2021/10/27 10:57:55;;;;;;;;;4.00;4.00;;;;;;;;5104391;27;112242;-79
2021/10/27 11:39:44;;;;;;;;;3.25;3.25;;;;;;;;5092358;27;111857;-76
2021/10/27 11:45:07;;;;;;;;;6.00;4.00;;;;;;;;5091114;27;112358;-77
2021/10/27 11:47:36;;;;;;;;;1.25;1.00;;;;;;;;5092068;27;112013;-75
2021/10/27 11:50:04;;;;;;;;;4.00;4.00;;;;;;;;5091024;27;112106;-77
2021/10/27 11:52:31;;;;;;;;;4.25;3.00;;;;;;;;5095375;27;113122;-78
2021/10/27 11:54:56;;;;;;;;;9.50;5.50;;;;;;;;5088110;27;112064;-77
2021/10/27 11:57:22;;;;;;;;;5.50;5.50;;;;;;;;5080091;27;115648;-78
2021/10/27 11:59:49;;;;;;;;;5.00;4.25;;;;;;;;5103378;27;112568;-79
2021/10/27 12:02:15;;;;;;;;;6.50;4.25;;;;;;;;5101754;27;113579;-72
2021/10/27 12:04:41;;;;;;;;;8.25;5.50;;;;;;;;5100910;27;113622;-74
2021/10/27 12:07:13;;;;;;;;;4.00;4.00;;;;;;;;5103746;27;112465;-77
2021/10/27 12:10:02;;;;;;;;;6.00;5.00;;;;;;;;5084303;27;113462;-78
2021/10/27 12:20:33;;;;;;;;;5.50;5.50;;;;;;;;5094257;27;111957;-74
2021/10/27 12:22:58;;;;;;;;;5.00;5.00;;;;;;;;5081856;27;112432;-76
2021/10/27 12:25:25;;;;;;;;;1.75;1.00;;;;;;;;5081833;27;112613;-78
2021/10/27 12:27:50;;;;;;;;;6.25;5.00;;;;;;;;5081927;27;111987;-77
2021/10/27 12:30:16;;;;;;;;;5.50;4.00;;;;;;;;5088377;27;112182;-76
2021/10/27 12:32:52;;;;;;;;;6.00;4.00;;;;;;;;5102755;27;112811;-73
2021/10/27 12:35:17;;;;;;;;;6.75;6.50;;;;;;;;5103142;27;112078;-75
2021/10/27 12:37:47;;;;;;;;;7.25;6.50;;;;;;;;5105759;27;111877;-78
2021/10/27 12:42:45;;;;;;;;;6.25;5.50;;;;;;;;5102762;27;111865;-78
2021/10/27 12:45:11;;;;;;;;;6.75;5.50;;;;;;;;5101023;27;112695;-75
2021/10/27 12:47:39;;;;;;;;;5.25;5.25;;;;;;;;5102576;27;111749;-74
2021/10/27 12:50:15;;;;;;;;;5.25;5.25;;;;;;;;5103619;27;112065;-76
2021/10/27 12:52:54;;;;;;;;;6.00;6.00;;;;;;;;5090145;27;112400;-75
2021/10/27 12:55:26;;;;;;;;;4.25;4.25;;;;;;;;5092953;27;111846;-76
2021/10/27 12:58:04;;;;;;;;;5.25;5.25;;;;;;;;5082346;27;113405;-75
2021/10/27 13:05:55;;;;;;;;;6.50;6.50;;;;;;;;5040424;27;112508;-78
2021/10/27 13:13:49;;;;;;;;;4.75;4.75;;;;;;;;5038469;27;112501;-74
2021/10/27 13:30:18;;;;;;;;;6.00;5.00;;;;;;;;5000743;27;112135;-76
2021/10/27 13:33:08;;;;;;;;;7.25;5.50;;;;;;;;5018577;27;113244;-75
2021/10/27 13:35:33;;;;;;;;;5.00;4.75;;;;;;;;5038646;27;113231;-79
2021/10/27 13:37:58;;;;;;;;;5.00;5.00;;;;;;;;5041035;27;113599;-80
2021/10/27 13:40:26;;;;;;;;;5.00;5.00;;;;;;;;5040614;27;111916;-78
2021/10/27 13:42:59;;;;;;;;;7.00;5.75;;;;;;;;5039338;27;113788;-79
2021/10/27 13:58:55;;;;;;;;;5.00;4.00;;;;;;;;5040499;27;112096;-81
2021/10/27 14:10:56;;;;;;;;;9.25;6.00;;;;;;;;5128241;27;112383;-77
2021/10/27 14:13:31;;;;;;;;;5.25;5.00;;;;;;;;5084866;27;115395;-70
2021/10/27 15:21:20;;;;;;;;;4.00;4.00;;;;;;;;5093095;27;112164;-83
2021/10/27 15:29:22;;;;;;;;;5.75;4.00;;;;;;;;5084356;27;112311;-83
2021/10/27 15:32:17;;;;;;;;;4.00;4.00;;;;;;;;5085067;27;113306;-83
2021/10/27 15:34:59;;;;;;;;;5.50;4.00;;;;;;;;5083926;27;114145;-83
2021/10/27 15:42:57;;;;;;;;;5.75;4.00;;;;;;;;5083757;27;112306;-83
2021/10/27 15:53:09;;;;;;;;;4.00;4.00;;;;;;;;5084250;27;112093;-83
2021/10/27 15:55:35;;;;;;;;;4.00;3.00;;;;;;;;5083818;27;113229;-83
2021/10/27 15:58:00;;;;;;;;;4.25;4.25;;;;;;;;5084503;27;112226;-83
2021/10/27 16:00:25;;;;;;;;;5.00;5.00;;;;;;;;5085234;27;113044;-83
2021/10/27 16:02:50;;;;;;;;;9.75;7.00;;;;;;;;5065219;27;113562;-83
2021/10/27 16:05:16;;;;;;;;;6.25;6.25;;;;;;;;5084825;27;111801;-83
2021/10/27 16:07:43;;;;;;;;;4.50;4.50;;;;;;;;5087535;27;111899;-84
2021/10/27 16:10:16;;;;;;;;;7.00;7.00;;;;;;;;5083784;27;111804;-84
2021/10/27 16:12:41;;;;;;;;;4.50;3.25;;;;;;;;5084890;27;111892;-83
2021/10/27 16:15:57;;;;;;;;;8.75;6.50;;;;;;;;5083497;27;112598;-84
2021/10/27 16:17:52;;;;;;;;;6.25;5.00;;;;;;;;5072969;27;112049;-84
2021/10/27 16:20:18;;;;;;;;;4.00;4.00;;;;;;;;5084266;27;111897;-84
2021/10/27 16:22:43;;;;;;;;;9.50;5.00;;;;;;;;5083166;27;112272;-81
2021/10/27 16:25:10;;;;;;;;;5.75;5.00;;;;;;;;5085286;27;111851;-81
2021/10/27 16:27:36;;;;;;;;;6.50;6.50;;;;;;;;5092624;27;112137;-79
2021/10/27 16:30:03;;;;;;;;;6.00;4.00;;;;;;;;5097348;27;112244;-79
2021/10/27 16:32:28;;;;;;;;;5.75;4.50;;;;;;;;5091277;27;112401;-79
2021/10/27 16:34:53;;;;;;;;;8.25;8.25;;;;;;;;5092887;27;112616;-79
2021/10/27 16:37:19;;;;;;;;;9.50;9.50;;;;;;;;5075522;27;112033;-79
2021/10/27 16:39:44;;;;;;;;;10.00;9.75;;;;;;;;5094255;27;113002;-86
2021/10/27 16:42:09;;;;;;;;;9.00;9.00;;;;;;;;5091278;27;112403;-83
2021/10/27 16:44:34;;;;;;;;;9.00;8.00;;;;;;;;5093665;27;111734;-85
2021/10/27 16:47:00;;;;;;;;;10.75;7.00;;;;;;;;5091393;27;111848;-78
2021/10/27 16:49:25;;;;;;;;;10.00;8.75;;;;;;;;5076486;27;115655;-79
2021/10/27 16:51:51;;;;;;;;;10.25;9.00;;;;;;;;5092028;27;111985;-79
2021/10/27 16:54:18;;;;;;;;;9.00;8.50;;;;;;;;5093612;27;112693;-77
2021/10/27 16:56:44;;;;;;;;;9.50;8.75;;;;;;;;5092437;27;111812;-78
2021/10/27 16:59:09;;;;;;;;;8.50;6.50;;;;;;;;5094480;27;111860;-82
2021/10/27 17:01:35;;;;;;;;;7.00;4.00;;;;;;;;5092476;27;112361;-76
2021/10/27 17:04:01;;;;;;;;;8.00;6.50;;;;;;;;5091963;27;111761;-74
2021/10/27 17:06:26;;;;;;;;;12.75;9.00;;;;;;;;5101843;27;112357;-73
2021/10/27 17:08:52;;;;;;;;;13.50;11.50;;;;;;;;5098458;27;112375;-75
2021/10/27 17:11:18;;;;;;;;;11.00;8.75;;;;;;;;5077652;27;111893;-76
2021/10/27 17:13:44;;;;;;;;;15.00;10.00;;;;;;;;5091271;27;113021;-73
2021/10/27 17:16:10;;;;;;;;;9.00;9.00;;;;;;;;5087544;27;113333;-76
2021/10/27 17:18:38;;;;;;;;;13.50;10.00;;;;;;;;5094972;27;118707;-84
2021/10/27 17:21:06;;;;;;;;;10.75;10.00;;;;;;;;5102161;27;112491;-76
2021/10/27 17:23:33;;;;;;;;;10.25;9.75;;;;;;;;5093596;27;112283;-76
2021/10/27 17:25:58;;;;;;;;;11.25;11.00;;;;;;;;5083865;27;112584;-83
2021/10/27 17:28:23;;;;;;;;;14.00;11.00;;;;;;;;5081751;27;112242;-80
2021/10/27 17:30:49;;;;;;;;;14.50;12.00;;;;;;;;5082434;27;112122;-77
2021/10/27 17:33:16;;;;;;;;;13.50;13.00;;;;;;;;5082685;27;112776;-79
2021/10/27 17:35:41;;;;;;;;;11.25;9.75;;;;;;;;5081394;27;112286;-80
2021/10/27 17:38:09;;;;;;;;;14.25;10.25;;;;;;;;5064002;27;112912;-77
2021/10/27 17:40:40;;;;;;;;;9.25;9.25;;;;;;;;5080493;27;114369;-76
2021/10/27 17:43:06;;;;;;;;;11.50;10.25;;;;;;;;5092266;27;112609;-80
2021/10/27 17:45:42;;;;;;;;;19.00;11.25;;;;;;;;5073171;27;113754;-76
2021/10/27 17:48:16;;;;;;;;;13.75;12.25;;;;;;;;5089426;27;113065;-78
2021/10/27 17:58:44;;;;;;;;;9.50;8.50;;;;;;;;5089934;27;112478;-84
2021/10/27 18:01:21;;;;;;;;;15.75;12.00;;;;;;;;5091582;27;113691;-75
2021/10/27 18:03:46;;;;;;;;;13.00;11.00;;;;;;;;5090940;27;111972;-76
2021/10/27 18:06:13;;;;;;;;;12.75;9.00;;;;;;;;5089125;27;111974;-76
2021/10/27 18:08:41;;;;;;;;;10.00;9.75;;;;;;;;5090361;27;112601;-77
2021/10/27 18:11:09;;;;;;;;;11.25;10.75;;;;;;;;5091997;27;112500;-76
2021/10/27 18:13:48;;;;;;;;;14.00;12.00;;;;;;;;5090055;27;112511;-74
2021/10/27 18:42:01;;;;;;;;;16.00;12.00;;;;;;;;5119340;27;112100;-76
2021/10/27 18:44:26;;;;;;;;;11.50;9.00;;;;;;;;5097549;27;113560;-75
2021/10/27 18:46:51;;;;;;;;;11.00;10.00;;;;;;;;5099705;27;113181;-75
2021/10/27 18:49:18;;;;;;;;;9.75;9.75;;;;;;;;5079341;27;114157;-75
2021/10/27 18:52:01;;;;;;;;;11.25;10.50;;;;;;;;5078988;27;114473;-75
2021/10/27 18:57:15;;;;;;;;;7.25;6.50;;;;;;;;5089477;27;112903;-78
2021/10/27 18:59:49;;;;;;;;;12.25;8.50;;;;;;;;5077256;27;112488;-78
2021/10/27 19:13:06;;;;;;;;;22.00;16.00;;;;;;;;5075687;27;112492;-74
2021/10/27 19:15:34;;;;;;;;;12.00;12.00;;;;;;;;5076896;27;111836;-74
2021/10/27 19:18:00;;;;;;;;;14.75;12.00;;;;;;;;5077823;27;112777;-75
2021/10/27 19:20:26;;;;;;;;;13.50;10.00;;;;;;;;5077062;27;112457;-74
2021/10/27 19:22:51;;;;;;;;;13.25;12.50;;;;;;;;5083326;27;112121;-72
2021/10/27 19:28:03;;;;;;;;;13.25;10.50;;;;;;;;5097233;27;112499;-71
2021/10/27 20:53:26;;;;;;;;;14.00;13.50;;;;;;;;5080125;27;112343;-73
2021/10/27 20:55:53;;;;;;;;;13.25;10.50;;;;;;;;5064679;27;112129;-73
2021/10/27 21:01:22;;;;;;;;;15.00;10.00;;;;;;;;5084854;27;113107;-77
2021/10/27 21:14:36;;;;;;;;;10.50;9.50;;;;;;;;5080644;27;112394;-73
2021/10/27 21:17:01;;;;;;;;;9.50;8.50;;;;;;;;5064123;27;112066;-73
2021/10/27 21:19:26;;;;;;;;;16.50;10.00;;;;;;;;5083190;27;112066;-72
2021/10/27 21:21:52;;;;;;;;;12.50;9.25;;;;;;;;5084685;27;112528;-74
2021/10/27 21:24:17;;;;;;;;;10.50;9.00;;;;;;;;5084039;27;112758;-75
2021/10/27 21:26:43;;;;;;;;;9.00;9.00;;;;;;;;5082382;27;112440;-74
2021/10/27 21:29:24;;;;;;;;;15.75;8.50;;;;;;;;5083374;27;111694;-75
2021/10/27 21:44:55;;;;;;;;;9.00;6.25;;;;;;;;5086014;27;112237;-74
2021/10/27 21:47:20;;;;;;;;;7.50;6.00;;;;;;;;5080592;27;112616;-73
2021/10/27 21:49:46;;;;;;;;;6.50;5.75;;;;;;;;5081151;27;112142;-72
2021/10/27 21:52:11;;;;;;;;;6.00;5.00;;;;;;;;5082231;27;112563;-74
2021/10/27 21:54:37;;;;;;;;;8.75;6.00;;;;;;;;5062318;27;112650;-73
2021/10/27 21:57:03;;;;;;;;;6.00;6.00;;;;;;;;5074504;27;111807;-72
2021/10/27 21:59:29;;;;;;;;;8.00;6.00;;;;;;;;5082950;27;111862;-73